Aeroporto :
LOGIN :

Iscrizione | Disclaimer

   EN    FR    IT 

 










Sommario :    VFR   VFR Marginale   IFR   IFR Intensivo   IFR Molto Intensivo
Visibilità : 
Base nubi : 
>= 8 km
>= 3000ft
5 / 8 km
1000 / 3000 ft
1500m / 5 km
500 / 1000 ft
800 / 1500m
200 / 500 ft
< 800m
< 200 ft
Simboli :   Temporali  Nebbia  Neve Forte  Precipitazioni Forti  Vento > 20 kt
SIGMETs :   Varie  Temporali  Ghiacco  Turbolenza  Onda orograficha  Ceneri Vulcaniche







- Altitudine del aeroporto : 433 ft
- Codice IATA : CCF
- Carte del aeroporto


LFMK - Carcassonne

ULTIMO METAR :
  • 191930Z AUTO 08015KT CAVOK 15/08 Q1025

METARs OBSOLETI :
  • 191900Z AUTO 08014KT CAVOK 15/07 Q1025
  • 191830Z AUTO 08014KT CAVOK 16/06 Q1025
  • 191800Z AUTO 08016KT CAVOK 17/06 Q1024 TEMPO 10020G35KT
  • 191730Z AUTO 09015KT 060V140 CAVOK 18/04 Q1024 TEMPO 10020G35KT
  • 191700Z AUTO 09014KT 070V140 CAVOK 18/05 Q1024 TEMPO 10020G35KT

TAF TAF LFMK
Valido dal 19 a 15 ore il 20 a 15 ore UTC


191400Z 1915/2015 10012KT CAVOK
TEMPO 1915/1919 10020G35KT
TEMPO 2009/2015 10020G35KT
Nessun NOTAM noto per questo aeroporto.



MetMap, La meteo Aeronautica in un colpo d'occhio ! - Copyright ORBIFLY Dicembre 2007 - Disclaimer

ORBIFLY MET'MAP TEAM :

Programmazione e sviluppo : Alexandra Zaïnal
Concezione e sviluppo : Baudouin d'Aumeries
Co-Programmazione e sviluppo : Marc-Olivier Méhu
Supporto tecnico e logistico : Manuel Goepfert
Aiuto per la traduzione : Arnaldo La Scala

Contatto : metmap@orbifly.com




FONTI E CREDITI :

   NOAA